Date,TemperatureHighF,TemperatureAvgF,TemperatureLowF,DewpointHighF,DewpointAvgF,DewpointLowF,HumidityHigh,HumidityAvg,HumidityLow,PressureMaxIn,PressureMinIn,WindSpeedMaxMPH,WindSpeedAvgMPH,GustSpeedMaxMPH,PrecipitationSumIn
2013-1-1,76.4,65.1,53.9,61.0,57.8,51.9,97,79,57,30.24,30.06,9,1,19,0.00
2013-1-2,78.4,68.8,62.7,68.6,64.9,60.0,96,88,71,30.09,30.01,7,1,13,0.00
2013-1-3,74.0,65.3,59.5,67.9,63.4,58.1,98,94,80,30.19,30.05,3,0,11,0.36
2013-1-4,61.8,58.9,56.0,59.6,57.3,54.9,97,94,88,30.30,30.17,2,0,9,0.17
2013-1-5,75.5,64.3,56.6,62.5,58.5,52.2,95,82,63,30.32,30.20,3,0,7,0.00
2013-1-6,79.4,67.5,61.0,70.8,64.2,59.4,97,90,72,30.22,30.09,4,1,12,0.04
2013-1-7,65.1,62.9,60.4,63.9,60.0,55.9,96,90,79,30.23,30.13,3,1,9,0.03
2013-1-8,84.1,71.1,61.7,70.1,65.1,60.2,97,83,59,30.24,30.13,3,0,10,0.00
2013-1-9,85.7,75.2,68.2,71.7,68.2,65.6,97,80,57,30.30,30.18,4,1,11,0.00
2013-1-10,83.3,74.0,67.5,69.9,66.9,64.0,97,80,54,30.31,30.22,5,1,12,0.00
2013-1-11,84.5,73.2,65.9,69.3,65.1,62.0,95,77,49,30.28,30.15,4,0,12,0.00
2013-1-12,83.3,72.3,65.3,69.4,66.2,63.8,96,82,58,30.21,30.09,4,0,11,0.00
2013-1-13,82.5,71.8,65.3,68.4,65.2,63.4,94,81,57,30.19,30.08,4,0,10,0.00
2013-1-14,81.4,70.4,62.8,66.2,62.4,58.1,96,78,50,30.20,30.13,5,1,12,0.00
2013-1-15,81.9,69.4,60.4,67.7,62.9,59.0,97,81,57,30.17,30.07,5,1,13,0.00
2013-1-16,82.5,70.6,62.9,67.4,63.6,59.6,97,81,47,30.13,30.02,6,1,10,0.01
2013-1-17,71.5,62.8,54.4,69.1,58.6,45.8,97,86,67,30.18,30.01,9,3,22,0.12
2013-1-18,63.1,54.7,43.1,55.5,46.9,36.3,80,75,64,30.34,30.18,7,2,20,0.00
2013-1-19,74.9,65.2,55.2,61.0,56.3,48.8,85,74,61,30.30,30.14,5,1,12,0.00
2013-1-20,77.8,66.9,60.5,63.6,60.0,56.8,91,79,61,30.20,30.06,4,0,7,0.00
2013-1-21,74.2,65.5,60.2,63.7,58.5,53.2,91,79,68,30.12,30.04,5,1,12,0.00
2013-1-22,66.8,60.0,50.9,53.3,42.7,31.9,78,55,31,30.31,30.10,4,1,11,0.00
2013-1-23,70.4,57.0,48.6,45.5,40.8,35.4,86,58,30,30.40,30.29,3,0,10,0.00
2013-1-24,72.8,57.5,46.3,54.4,48.8,43.8,96,76,41,30.37,30.27,6,1,17,0.00
2013-1-25,75.8,60.4,50.4,59.1,51.0,47.8,97,75,40,30.34,30.21,4,0,9,0.00
2013-1-26,74.3,61.6,50.0,59.8,55.0,48.6,97,81,53,30.31,30.20,4,1,10,0.01
2013-1-27,79.3,65.6,53.5,61.5,56.1,52.1,97,74,44,30.33,30.23,3,1,7,0.00
2013-1-28,82.4,70.6,62.5,65.9,62.3,58.4,95,77,48,30.34,30.22,4,0,9,0.00
2013-1-29,83.8,71.0,61.2,69.4,64.9,59.5,97,82,54,30.26,30.10,7,2,14,0.00
2013-1-30,79.4,72.1,66.1,68.0,66.0,63.4,92,82,64,30.11,29.93,14,6,30,0.00
2013-1-31,71.2,57.4,47.3,67.1,45.6,32.8,95,67,37,30.27,29.94,7,3,20,0.18